Time;durP1;ratioP1;P1;durP2;ratioP2;P2;SDS_P1;SDS_P2;PMS_P1;PMS_P2;Temp;Humidity;BMP_temperature;BMP_pressure;BME280_temperature;BME280_humidity;BME280_pressure;Samples;Min_cycle;Max_cycle;Signal;HPM_P1;HPM_P2
2021/08/26 00:00:57;;;;;;;17.42;6.30;;;;;;;;;;5032241;28;20037;-73
2021/08/26 00:06:08;;;;;;;12.30;5.72;;;;;;;;;;5028671;28;20082;-72
2021/08/26 00:08:34;;;;;;;14.55;6.30;;;;;;;;;;5028949;28;20026;-72
2021/08/26 00:11:00;;;;;;;15.23;6.47;;;;;;;;;;5010793;28;20041;-71
2021/08/26 00:13:26;;;;;;;13.00;5.88;;;;;;;;;;5010849;28;20029;-72
2021/08/26 00:15:55;;;;;;;17.10;6.47;;;;;;;;;;5028319;28;20468;-72
2021/08/26 00:18:22;;;;;;;16.92;6.03;;;;;;;;;;5011142;28;20352;-71
2021/08/26 00:20:52;;;;;;;22.02;7.85;;;;;;;;;;5029250;28;20472;-73
2021/08/26 00:23:18;;;;;;;15.85;6.15;;;;;;;;;;5011807;28;20404;-72
2021/08/26 00:25:43;;;;;;;11.73;5.93;;;;;;;;;;5032198;28;20030;-72
2021/08/26 00:28:09;;;;;;;17.27;6.03;;;;;;;;;;5032084;28;20132;-71
2021/08/26 00:30:34;;;;;;;14.68;5.93;;;;;;;;;;5025208;28;20021;-72
2021/08/26 00:33:00;;;;;;;13.48;5.80;;;;;;;;;;5014097;28;20090;-72
2021/08/26 00:35:25;;;;;;;9.85;5.43;;;;;;;;;;5014340;28;20393;-72
2021/08/26 00:37:51;;;;;;;15.40;6.45;;;;;;;;;;5032046;28;20025;-72
2021/08/26 00:40:16;;;;;;;14.57;6.20;;;;;;;;;;5031840;28;20397;-73
2021/08/26 00:42:42;;;;;;;13.20;6.30;;;;;;;;;;5032278;28;20111;-73
2021/08/26 00:45:08;;;;;;;13.35;6.70;;;;;;;;;;5031402;28;20077;-72
2021/08/26 00:47:35;;;;;;;14.73;6.65;;;;;;;;;;5014182;28;20491;-72
2021/08/26 00:50:00;;;;;;;13.10;5.97;;;;;;;;;;5031803;28;20044;-72
2021/08/26 00:52:29;;;;;;;12.13;5.47;;;;;;;;;;5031856;28;20029;-72
2021/08/26 00:54:55;;;;;;;13.90;6.05;;;;;;;;;;5031668;28;20029;-72
2021/08/26 00:57:24;;;;;;;12.75;6.22;;;;;;;;;;5014024;28;20517;-71
2021/08/26 00:59:53;;;;;;;12.13;5.30;;;;;;;;;;5017003;28;20076;-72
2021/08/26 01:02:40;;;;;;;12.98;5.78;;;;;;;;;;4997163;28;20088;-72
2021/08/26 01:05:23;;;;;;;16.92;6.55;;;;;;;;;;5031555;28;20033;-72
2021/08/26 01:08:15;;;;;;;10.60;5.50;;;;;;;;;;5031683;28;20040;-72
2021/08/26 01:10:43;;;;;;;14.95;6.90;;;;;;;;;;4993833;28;20033;-71
2021/08/26 01:13:09;;;;;;;12.45;6.35;;;;;;;;;;5013674;28;20116;-74
2021/08/26 01:15:35;;;;;;;10.93;5.28;;;;;;;;;;5012530;28;20446;-71
2021/08/26 01:18:00;;;;;;;8.63;5.20;;;;;;;;;;5031070;28;20119;-72
2021/08/26 01:20:26;;;;;;;11.68;6.05;;;;;;;;;;5031206;28;20112;-72
2021/08/26 01:22:52;;;;;;;14.02;5.78;;;;;;;;;;5013205;28;20018;-71
2021/08/26 01:25:21;;;;;;;11.32;5.65;;;;;;;;;;5012982;28;20112;-71
2021/08/26 01:27:52;;;;;;;12.50;6.38;;;;;;;;;;5031039;28;20038;-73
2021/08/26 01:30:21;;;;;;;13.13;6.15;;;;;;;;;;5019679;28;20453;-71
2021/08/26 01:32:49;;;;;;;16.10;6.00;;;;;;;;;;5032952;28;20356;-71
2021/08/26 01:35:15;;;;;;;13.73;5.82;;;;;;;;;;5032824;28;20060;-71
2021/08/26 01:37:41;;;;;;;16.13;5.45;;;;;;;;;;5050837;28;20102;-73
2021/08/26 01:40:08;;;;;;;13.80;5.32;;;;;;;;;;5032280;28;20410;-73
2021/08/26 01:42:34;;;;;;;16.17;6.57;;;;;;;;;;5050721;28;20140;-72
2021/08/26 01:45:00;;;;;;;14.43;5.63;;;;;;;;;;5050312;28;20024;-72
2021/08/26 01:47:26;;;;;;;12.50;5.40;;;;;;;;;;5050007;28;20079;-71
2021/08/26 01:49:52;;;;;;;12.52;6.35;;;;;;;;;;5050471;28;20037;-72
2021/08/26 01:52:20;;;;;;;15.43;5.97;;;;;;;;;;5032491;28;20108;-73
2021/08/26 01:54:59;;;;;;;12.95;5.50;;;;;;;;;;5050578;28;20099;-70
2021/08/26 01:57:26;;;;;;;9.75;4.70;;;;;;;;;;5050720;28;20047;-71
2021/08/26 01:59:53;;;;;;;13.52;5.82;;;;;;;;;;5051315;28;20467;-72
2021/08/26 02:02:19;;;;;;;13.73;6.20;;;;;;;;;;5032685;28;20143;-72
2021/08/26 02:04:45;;;;;;;13.07;6.05;;;;;;;;;;5032312;28;20029;-72
2021/08/26 02:07:11;;;;;;;13.60;5.72;;;;;;;;;;5050202;28;20083;-72
2021/08/26 02:09:36;;;;;;;16.02;5.78;;;;;;;;;;5050329;28;20029;-72
2021/08/26 02:12:02;;;;;;;13.98;6.38;;;;;;;;;;5050139;28;20396;-72
2021/08/26 02:14:28;;;;;;;12.68;5.80;;;;;;;;;;5032301;28;20028;-73
2021/08/26 02:16:53;;;;;;;13.90;5.88;;;;;;;;;;5049529;28;20116;-72
2021/08/26 02:19:19;;;;;;;15.95;6.18;;;;;;;;;;5049997;28;20127;-73
2021/08/26 02:21:45;;;;;;;11.65;5.97;;;;;;;;;;5050066;28;20056;-72
2021/08/26 02:24:10;;;;;;;14.07;5.95;;;;;;;;;;5031907;28;20245;-73
2021/08/26 02:26:36;;;;;;;13.77;5.75;;;;;;;;;;5049609;28;20093;-72
2021/08/26 02:29:02;;;;;;;14.48;5.65;;;;;;;;;;5049807;28;20258;-72
2021/08/26 02:31:28;;;;;;;10.93;5.47;;;;;;;;;;5049036;28;20439;-71
2021/08/26 02:33:54;;;;;;;18.17;5.55;;;;;;;;;;5048381;28;20036;-72
2021/08/26 02:36:21;;;;;;;11.15;6.30;;;;;;;;;;5049605;28;20055;-73
2021/08/26 02:38:47;;;;;;;14.40;6.03;;;;;;;;;;5031464;28;20029;-72
2021/08/26 02:41:12;;;;;;;14.35;6.18;;;;;;;;;;5031639;28;20033;-72
2021/08/26 02:43:38;;;;;;;11.35;6.43;;;;;;;;;;5049600;28;20139;-72
2021/08/26 02:46:03;;;;;;;11.45;5.72;;;;;;;;;;5041858;28;20454;-73
2021/08/26 02:48:29;;;;;;;16.13;6.05;;;;;;;;;;5029564;28;20033;-71
2021/08/26 02:50:54;;;;;;;16.63;6.10;;;;;;;;;;5029489;28;20036;-72
2021/08/26 02:53:20;;;;;;;18.70;6.57;;;;;;;;;;5029529;28;20045;-71
2021/08/26 02:55:45;;;;;;;14.82;5.45;;;;;;;;;;5029457;28;20368;-71
2021/08/26 02:58:11;;;;;;;15.15;5.95;;;;;;;;;;5011664;28;20076;-72
2021/08/26 03:00:36;;;;;;;12.95;6.75;;;;;;;;;;5029073;28;20060;-72
2021/08/26 03:03:02;;;;;;;18.10;5.60;;;;;;;;;;5011006;28;20040;-72
2021/08/26 03:05:28;;;;;;;13.82;6.20;;;;;;;;;;5029393;28;20026;-72
2021/08/26 03:07:56;;;;;;;14.57;6.80;;;;;;;;;;5011547;28;20028;-72
2021/08/26 03:10:22;;;;;;;11.40;5.70;;;;;;;;;;5011280;28;20384;-72
2021/08/26 03:12:48;;;;;;;13.25;5.63;;;;;;;;;;5011351;28;20025;-72
2021/08/26 03:15:13;;;;;;;12.50;5.80;;;;;;;;;;5027656;28;20060;-72
2021/08/26 03:17:39;;;;;;;16.67;7.32;;;;;;;;;;5014656;28;20373;-72
2021/08/26 03:23:26;;;;;;;14.93;6.18;;;;;;;;;;5029437;28;20039;-72
2021/08/26 03:25:52;;;;;;;17.25;8.70;;;;;;;;;;5029260;28;20448;-73
2021/08/26 03:28:20;;;;;;;15.85;7.15;;;;;;;;;;5011278;28;20029;-72
2021/08/26 03:30:46;;;;;;;18.33;7.82;;;;;;;;;;5028824;28;20041;-74
2021/08/26 03:33:11;;;;;;;17.33;7.10;;;;;;;;;;5028565;28;20037;-71
2021/08/26 03:35:37;;;;;;;15.10;6.72;;;;;;;;;;5029735;28;20024;-72
2021/08/26 03:38:03;;;;;;;17.08;7.43;;;;;;;;;;5046707;28;20473;-71
2021/08/26 03:40:29;;;;;;;15.65;6.78;;;;;;;;;;5029510;28;20059;-72
2021/08/26 03:42:54;;;;;;;15.25;6.72;;;;;;;;;;5047201;28;20488;-72
2021/08/26 03:45:20;;;;;;;14.98;7.40;;;;;;;;;;5029523;28;20033;-72
2021/08/26 03:47:46;;;;;;;19.73;7.50;;;;;;;;;;5030802;28;20508;-72
2021/08/26 03:50:11;;;;;;;18.90;7.68;;;;;;;;;;5009791;28;20033;-72
2021/08/26 03:52:37;;;;;;;21.73;8.00;;;;;;;;;;5010219;28;20037;-72
2021/08/26 03:55:03;;;;;;;13.27;7.10;;;;;;;;;;5027086;28;20106;-72
2021/08/26 03:57:29;;;;;;;18.08;9.68;;;;;;;;;;5027950;28;20343;-72
2021/08/26 03:59:54;;;;;;;14.32;7.00;;;;;;;;;;5012920;28;20039;-73
2021/08/26 04:02:20;;;;;;;16.05;8.55;;;;;;;;;;5019926;28;20029;-72
2021/08/26 04:04:46;;;;;;;16.48;8.15;;;;;;;;;;5013818;28;20404;-71
2021/08/26 04:07:12;;;;;;;16.75;7.72;;;;;;;;;;5031859;28;20033;-72
2021/08/26 04:09:38;;;;;;;17.63;7.32;;;;;;;;;;5014539;28;20124;-72
2021/08/26 04:12:03;;;;;;;15.88;7.10;;;;;;;;;;5014333;28;20440;-72
2021/08/26 04:14:29;;;;;;;17.83;7.15;;;;;;;;;;5032586;28;20037;-72
2021/08/26 04:16:54;;;;;;;15.45;6.88;;;;;;;;;;5014157;28;20453;-71
2021/08/26 04:19:20;;;;;;;10.60;6.10;;;;;;;;;;5014275;28;20488;-72
2021/08/26 04:21:45;;;;;;;14.00;6.47;;;;;;;;;;5032331;28;20029;-72
2021/08/26 04:24:11;;;;;;;15.75;6.78;;;;;;;;;;5014217;28;20033;-73
2021/08/26 04:26:36;;;;;;;14.35;7.25;;;;;;;;;;5014177;28;20050;-72
2021/08/26 04:29:02;;;;;;;15.20;7.15;;;;;;;;;;5014162;28;20448;-73
2021/08/26 04:31:27;;;;;;;12.95;7.00;;;;;;;;;;5014122;28;20608;-73
2021/08/26 04:33:53;;;;;;;14.77;7.60;;;;;;;;;;5031578;28;20037;-73
2021/08/26 04:36:18;;;;;;;17.42;7.90;;;;;;;;;;5031748;28;20493;-74
2021/08/26 04:38:44;;;;;;;15.07;7.47;;;;;;;;;;5032028;28;20366;-72
2021/08/26 04:41:09;;;;;;;15.88;7.53;;;;;;;;;;5031643;28;20108;-72
2021/08/26 04:43:35;;;;;;;15.15;7.90;;;;;;;;;;5014022;28;20025;-71
2021/08/26 04:46:00;;;;;;;16.30;7.68;;;;;;;;;;5031416;28;20034;-72
2021/08/26 04:48:26;;;;;;;16.33;8.35;;;;;;;;;;5030996;28;20029;-72
2021/08/26 04:50:51;;;;;;;18.27;9.70;;;;;;;;;;5031574;28;20029;-72
2021/08/26 04:53:17;;;;;;;16.02;6.90;;;;;;;;;;5013660;28;20029;-71
2021/08/26 04:55:42;;;;;;;16.17;7.05;;;;;;;;;;5031518;28;20072;-73
2021/08/26 04:58:08;;;;;;;18.77;7.03;;;;;;;;;;5031559;28;20033;-72
2021/08/26 05:00:33;;;;;;;16.88;7.07;;;;;;;;;;5013738;28;20068;-73
2021/08/26 05:02:59;;;;;;;14.00;6.55;;;;;;;;;;5031108;28;20029;-73
2021/08/26 05:05:25;;;;;;;13.88;6.82;;;;;;;;;;5031802;28;20034;-73
2021/08/26 05:07:50;;;;;;;14.80;7.53;;;;;;;;;;5031317;28;20029;-72
2021/08/26 05:10:16;;;;;;;17.95;7.82;;;;;;;;;;5031294;28;20398;-72
2021/08/26 05:12:41;;;;;;;15.63;7.80;;;;;;;;;;5031297;28;20123;-72
2021/08/26 05:15:07;;;;;;;13.05;6.65;;;;;;;;;;5013485;28;20117;-74
2021/08/26 05:17:32;;;;;;;17.13;7.57;;;;;;;;;;5016832;28;20131;-73
2021/08/26 05:19:58;;;;;;;16.33;7.18;;;;;;;;;;5031139;28;20116;-71
2021/08/26 05:22:24;;;;;;;12.40;6.70;;;;;;;;;;5031229;28;20029;-73
2021/08/26 05:24:50;;;;;;;14.05;6.85;;;;;;;;;;5013555;28;20481;-73
2021/08/26 05:27:17;;;;;;;17.65;6.97;;;;;;;;;;5013114;28;20421;-73
2021/08/26 05:29:44;;;;;;;13.82;6.60;;;;;;;;;;5013357;28;20120;-71
2021/08/26 05:32:09;;;;;;;13.57;7.30;;;;;;;;;;5012679;28;20086;-74
2021/08/26 05:34:36;;;;;;;15.05;7.25;;;;;;;;;;5030542;28;20063;-73
2021/08/26 05:37:02;;;;;;;13.93;6.30;;;;;;;;;;5030377;28;20048;-73
2021/08/26 05:39:28;;;;;;;19.15;8.43;;;;;;;;;;5012872;28;20036;-73
2021/08/26 05:41:53;;;;;;;15.95;7.32;;;;;;;;;;5013010;28;20124;-73
2021/08/26 05:44:19;;;;;;;14.98;7.75;;;;;;;;;;5012828;28;20041;-73
2021/08/26 05:46:45;;;;;;;17.35;8.07;;;;;;;;;;5030733;28;20036;-73
2021/08/26 05:49:10;;;;;;;13.38;7.43;;;;;;;;;;5030154;28;20107;-73
2021/08/26 05:51:36;;;;;;;15.52;7.55;;;;;;;;;;5013005;28;20080;-73
2021/08/26 05:54:02;;;;;;;15.82;7.78;;;;;;;;;;5030501;28;20032;-73
2021/08/26 05:56:28;;;;;;;13.43;6.57;;;;;;;;;;5012843;28;20115;-73
2021/08/26 05:58:54;;;;;;;16.98;8.95;;;;;;;;;;5030797;28;20064;-73
2021/08/26 06:01:20;;;;;;;17.13;8.27;;;;;;;;;;5030143;28;20057;-74
2021/08/26 06:03:45;;;;;;;14.38;7.95;;;;;;;;;;5005270;28;20115;-72
2021/08/26 06:06:11;;;;;;;17.30;8.50;;;;;;;;;;5022050;28;20037;-72
2021/08/26 06:08:37;;;;;;;14.52;8.45;;;;;;;;;;5012599;28;20033;-72
2021/08/26 06:11:03;;;;;;;16.13;8.43;;;;;;;;;;5030270;28;20500;-72
2021/08/26 06:13:29;;;;;;;20.13;8.20;;;;;;;;;;5012137;28;20029;-73
2021/08/26 06:15:54;;;;;;;20.88;8.50;;;;;;;;;;5012228;28;20027;-72
2021/08/26 06:18:21;;;;;;;16.30;8.93;;;;;;;;;;5013896;28;20029;-74
2021/08/26 06:20:48;;;;;;;14.80;8.73;;;;;;;;;;5048764;28;20050;-73
2021/08/26 06:23:14;;;;;;;16.83;9.25;;;;;;;;;;5040666;28;20037;-74
2021/08/26 06:25:40;;;;;;;15.05;7.95;;;;;;;;;;5000862;28;20041;-73
2021/08/26 06:28:05;;;;;;;11.15;6.63;;;;;;;;;;5041463;28;20132;-72
2021/08/26 06:30:31;;;;;;;20.35;8.15;;;;;;;;;;5011547;28;20030;-73
2021/08/26 06:32:57;;;;;;;12.27;7.50;;;;;;;;;;5008019;28;20473;-73
2021/08/26 06:35:23;;;;;;;14.35;7.35;;;;;;;;;;5009981;28;20072;-76
2021/08/26 06:37:48;;;;;;;13.07;6.32;;;;;;;;;;4991184;28;20040;-73
2021/08/26 06:40:14;;;;;;;13.90;7.63;;;;;;;;;;5012222;28;20120;-73
2021/08/26 06:42:40;;;;;;;14.95;8.27;;;;;;;;;;5032278;28;20520;-74
2021/08/26 06:45:06;;;;;;;12.75;8.27;;;;;;;;;;5009341;28;20087;-73
2021/08/26 06:47:32;;;;;;;15.00;8.02;;;;;;;;;;5020991;28;20028;-73
2021/08/26 06:49:57;;;;;;;19.35;9.63;;;;;;;;;;5024958;28;20029;-74
2021/08/26 06:52:23;;;;;;;17.17;9.23;;;;;;;;;;5017784;28;20471;-74
2021/08/26 06:54:48;;;;;;;14.07;6.95;;;;;;;;;;5005861;28;20108;-73
2021/08/26 06:57:14;;;;;;;18.98;8.80;;;;;;;;;;5044503;28;20033;-73
2021/08/26 06:59:39;;;;;;;12.63;5.63;;;;;;;;;;5047274;28;20094;-72
2021/08/26 07:02:05;;;;;;;12.30;5.88;;;;;;;;;;5047392;28;20721;-73
2021/08/26 07:04:30;;;;;;;10.82;5.68;;;;;;;;;;5033242;28;20036;-74
2021/08/26 07:06:56;;;;;;;11.43;6.85;;;;;;;;;;5025504;28;20032;-74
2021/08/26 07:09:22;;;;;;;13.45;7.22;;;;;;;;;;5046354;28;20029;-74
2021/08/26 07:11:49;;;;;;;9.00;5.22;;;;;;;;;;5049326;28;20028;-73
2021/08/26 07:14:15;;;;;;;15.75;6.90;;;;;;;;;;5030498;28;20035;-73
2021/08/26 07:16:41;;;;;;;13.07;6.55;;;;;;;;;;5020472;28;20029;-74
2021/08/26 07:19:06;;;;;;;12.98;6.82;;;;;;;;;;4993054;28;20028;-73
2021/08/26 07:21:32;;;;;;;14.15;6.78;;;;;;;;;;5026132;28;20038;-73
2021/08/26 07:23:58;;;;;;;8.65;5.22;;;;;;;;;;5011684;28;20034;-72
2021/08/26 07:26:23;;;;;;;9.18;5.28;;;;;;;;;;5003189;28;20065;-73
2021/08/26 07:28:51;;;;;;;11.60;5.40;;;;;;;;;;5015735;28;20029;-75
2021/08/26 07:31:16;;;;;;;11.70;5.35;;;;;;;;;;5018587;28;20044;-74
2021/08/26 07:33:42;;;;;;;11.18;4.78;;;;;;;;;;5001144;28;20412;-73
2021/08/26 07:36:08;;;;;;;10.27;5.63;;;;;;;;;;5030328;28;21606;-73
2021/08/26 07:38:33;;;;;;;8.00;4.53;;;;;;;;;;5034753;28;20107;-73
2021/08/26 07:40:59;;;;;;;18.45;4.47;;;;;;;;;;5039639;28;20159;-74
2021/08/26 07:43:25;;;;;;;7.13;4.07;;;;;;;;;;5026108;28;20033;-73
2021/08/26 07:45:54;;;;;;;9.48;4.30;;;;;;;;;;5014981;28;20033;-74
2021/08/26 07:48:19;;;;;;;7.50;4.82;;;;;;;;;;5001318;28;20059;-73
2021/08/26 07:50:47;;;;;;;12.70;4.53;;;;;;;;;;5027340;28;20030;-74
2021/08/26 07:53:12;;;;;;;9.73;4.15;;;;;;;;;;5037171;28;20037;-73
2021/08/26 07:55:38;;;;;;;8.32;4.45;;;;;;;;;;5023662;28;20052;-74
2021/08/26 07:58:03;;;;;;;7.95;3.40;;;;;;;;;;5029476;28;20029;-74
2021/08/26 08:00:31;;;;;;;12.40;3.85;;;;;;;;;;5001563;28;20049;-74
2021/08/26 08:02:57;;;;;;;4.60;2.63;;;;;;;;;;5040094;28;20033;-73
2021/08/26 08:05:24;;;;;;;4.53;2.60;;;;;;;;;;5029913;28;20074;-72
2021/08/26 08:07:50;;;;;;;2.90;2.33;;;;;;;;;;5023853;28;20034;-72
2021/08/26 08:10:18;;;;;;;5.55;2.53;;;;;;;;;;5027446;28;20113;-73
2021/08/26 08:12:44;;;;;;;2.92;2.38;;;;;;;;;;5011226;28;20044;-74
2021/08/26 08:15:10;;;;;;;3.60;2.58;;;;;;;;;;5014349;28;20492;-75
2021/08/26 08:17:37;;;;;;;3.70;2.80;;;;;;;;;;5010676;28;20075;-74
2021/08/26 08:20:04;;;;;;;6.97;2.67;;;;;;;;;;5026853;28;20492;-74
2021/08/26 08:22:30;;;;;;;6.20;2.63;;;;;;;;;;5022765;28;20080;-73
2021/08/26 08:24:55;;;;;;;4.65;2.67;;;;;;;;;;5014530;28;20049;-73
2021/08/26 08:27:21;;;;;;;3.60;2.72;;;;;;;;;;5014486;28;20410;-72
2021/08/26 08:29:47;;;;;;;5.85;3.40;;;;;;;;;;5022819;28;20048;-74
2021/08/26 08:32:13;;;;;;;6.05;3.00;;;;;;;;;;5007928;28;20034;-73
2021/08/26 08:34:39;;;;;;;5.93;2.65;;;;;;;;;;5026540;28;20053;-74
2021/08/26 08:37:05;;;;;;;6.68;3.55;;;;;;;;;;5018076;28;20026;-71
2021/08/26 08:39:30;;;;;;;6.63;3.47;;;;;;;;;;5025156;28;20109;-72
2021/08/26 08:41:56;;;;;;;7.85;3.50;;;;;;;;;;5026986;28;20037;-74
2021/08/26 08:44:22;;;;;;;7.35;3.40;;;;;;;;;;5028987;28;20042;-73
2021/08/26 08:46:49;;;;;;;8.50;4.15;;;;;;;;;;5020789;28;20511;-72
2021/08/26 08:49:22;;;;;;;12.45;4.25;;;;;;;;;;5015955;28;20182;-73
2021/08/26 08:51:53;;;;;;;8.75;4.43;;;;;;;;;;5019674;28;20036;-73
2021/08/26 08:54:20;;;;;;;6.43;4.63;;;;;;;;;;5017568;28;20078;-73
2021/08/26 08:56:45;;;;;;;5.93;3.92;;;;;;;;;;5023179;28;20030;-73
2021/08/26 08:59:11;;;;;;;9.70;5.82;;;;;;;;;;5017615;28;20037;-73
2021/08/26 09:01:37;;;;;;;7.82;4.72;;;;;;;;;;5020810;28;20712;-73
2021/08/26 09:04:05;;;;;;;7.78;4.82;;;;;;;;;;4997791;28;20026;-74
2021/08/26 09:06:41;;;;;;;18.52;8.57;;;;;;;;;;5023301;28;20486;-73
2021/08/26 09:09:08;;;;;;;9.05;5.85;;;;;;;;;;5015148;28;20029;-73
2021/08/26 09:11:34;;;;;;;9.43;5.38;;;;;;;;;;5019171;28;20492;-74
2021/08/26 09:14:11;;;;;;;12.00;5.75;;;;;;;;;;5015606;28;20031;-73
2021/08/26 09:16:41;;;;;;;11.10;5.60;;;;;;;;;;5015521;28;20034;-73
2021/08/26 09:19:31;;;;;;;9.43;6.00;;;;;;;;;;4998517;28;20060;-71
2021/08/26 09:22:06;;;;;;;11.45;5.57;;;;;;;;;;5025072;28;20025;-75
2021/08/26 09:24:49;;;;;;;10.18;6.95;;;;;;;;;;5008981;28;20065;-74
2021/08/26 09:27:34;;;;;;;9.32;5.47;;;;;;;;;;4991982;28;20062;-73
2021/08/26 09:30:19;;;;;;;10.80;5.07;;;;;;;;;;5008190;28;20025;-73
2021/08/26 09:32:59;;;;;;;11.68;5.90;;;;;;;;;;5002491;28;20033;-73
2021/08/26 09:35:34;;;;;;;10.00;5.75;;;;;;;;;;5013022;28;20121;-74
2021/08/26 09:38:08;;;;;;;8.27;5.43;;;;;;;;;;5004668;28;20037;-75
2021/08/26 09:40:45;;;;;;;10.88;5.65;;;;;;;;;;5000252;28;20072;-74
2021/08/26 09:43:11;;;;;;;10.70;6.07;;;;;;;;;;5011601;28;20068;-75
2021/08/26 09:45:46;;;;;;;13.10;5.97;;;;;;;;;;4993130;28;20416;-73
2021/08/26 09:48:15;;;;;;;9.52;5.50;;;;;;;;;;5003863;28;20037;-73
2021/08/26 09:50:53;;;;;;;10.20;5.07;;;;;;;;;;5000852;28;20042;-73
2021/08/26 09:53:33;;;;;;;9.27;5.88;;;;;;;;;;5022836;28;20083;-73
2021/08/26 09:56:06;;;;;;;10.55;6.53;;;;;;;;;;5006233;28;20037;-74
2021/08/26 09:58:36;;;;;;;11.13;5.20;;;;;;;;;;5021734;28;20055;-73
2021/08/26 10:01:22;;;;;;;12.25;5.57;;;;;;;;;;5021796;28;20141;-74
2021/08/26 10:03:50;;;;;;;9.85;5.88;;;;;;;;;;5017669;28;20017;-74
2021/08/26 10:06:17;;;;;;;12.48;6.18;;;;;;;;;;5023858;28;20932;-73
2021/08/26 10:08:48;;;;;;;11.70;6.68;;;;;;;;;;5018510;28;20428;-73
2021/08/26 10:11:18;;;;;;;10.70;5.82;;;;;;;;;;5004151;28;20040;-75
2021/08/26 10:13:44;;;;;;;8.98;6.35;;;;;;;;;;5000603;28;20087;-74
2021/08/26 10:16:10;;;;;;;9.73;6.10;;;;;;;;;;4997584;28;20553;-74
2021/08/26 10:18:36;;;;;;;9.85;5.90;;;;;;;;;;5005080;28;20035;-74
2021/08/26 10:21:03;;;;;;;10.88;6.38;;;;;;;;;;5004953;28;20153;-74
2021/08/26 10:23:30;;;;;;;12.25;6.00;;;;;;;;;;5007750;28;20087;-74
2021/08/26 10:25:57;;;;;;;13.38;6.68;;;;;;;;;;5005454;28;20055;-73
2021/08/26 10:28:25;;;;;;;9.88;5.72;;;;;;;;;;5003567;28;20038;-74
2021/08/26 10:30:50;;;;;;;17.27;5.65;;;;;;;;;;4984166;28;20069;-75
2021/08/26 10:33:23;;;;;;;8.57;4.72;;;;;;;;;;5021798;28;20029;-75
2021/08/26 10:35:59;;;;;;;9.30;5.60;;;;;;;;;;4998441;28;20033;-74
2021/08/26 10:38:29;;;;;;;13.40;5.90;;;;;;;;;;5020055;28;20031;-74
2021/08/26 10:40:56;;;;;;;7.35;5.50;;;;;;;;;;5001668;28;20136;-73
2021/08/26 10:43:39;;;;;;;11.70;5.35;;;;;;;;;;5018694;28;20537;-74
2021/08/26 10:46:07;;;;;;;8.20;5.40;;;;;;;;;;5018558;28;20037;-74
2021/08/26 10:48:35;;;;;;;12.00;6.03;;;;;;;;;;4999745;28;20038;-74
2021/08/26 10:51:14;;;;;;;9.90;4.47;;;;;;;;;;5005294;28;20028;-73
2021/08/26 10:53:46;;;;;;;7.47;4.00;;;;;;;;;;5004539;28;20037;-74
2021/08/26 10:56:23;;;;;;;10.43;4.72;;;;;;;;;;5018652;28;20036;-73
2021/08/26 10:58:54;;;;;;;8.05;4.20;;;;;;;;;;5017976;28;20037;-73
2021/08/26 11:01:38;;;;;;;10.57;3.95;;;;;;;;;;5016296;28;20042;-75
2021/08/26 11:04:20;;;;;;;10.07;4.18;;;;;;;;;;5015307;28;20476;-72
2021/08/26 11:06:47;;;;;;;8.48;4.30;;;;;;;;;;4997674;28;20037;-73
2021/08/26 11:09:12;;;;;;;8.40;4.47;;;;;;;;;;4999785;28;20212;-73
2021/08/26 11:11:41;;;;;;;13.10;5.00;;;;;;;;;;5017354;28;20037;-74
2021/08/26 11:14:07;;;;;;;9.77;4.80;;;;;;;;;;5020488;28;20037;-73
2021/08/26 11:16:38;;;;;;;12.35;5.57;;;;;;;;;;5005677;28;20083;-74
2021/08/26 11:19:04;;;;;;;14.10;6.50;;;;;;;;;;5022656;28;20099;-72
2021/08/26 11:21:45;;;;;;;13.55;5.40;;;;;;;;;;5008455;28;20442;-75
2021/08/26 11:24:14;;;;;;;13.57;4.85;;;;;;;;;;5022620;28;20120;-71
2021/08/26 11:27:19;;;;;;;15.23;4.68;;;;;;;;;;5023091;28;20125;-72
2021/08/26 11:29:51;;;;;;;9.60;5.13;;;;;;;;;;5007371;28;20054;-76
2021/08/26 11:32:26;;;;;;;20.70;5.82;;;;;;;;;;5003781;28;20033;-72
2021/08/26 11:34:59;;;;;;;13.10;4.90;;;;;;;;;;5001431;28;20037;-74
2021/08/26 11:37:32;;;;;;;12.23;5.47;;;;;;;;;;5007528;28;20037;-73
2021/08/26 11:40:02;;;;;;;20.33;5.57;;;;;;;;;;5020592;28;20067;-73
2021/08/26 11:42:28;;;;;;;9.25;4.88;;;;;;;;;;5021669;28;20649;-74
2021/08/26 11:45:16;;;;;;;11.35;4.03;;;;;;;;;;5016509;28;20036;-72
2021/08/26 11:47:48;;;;;;;12.10;5.05;;;;;;;;;;5018406;28;20120;-74
2021/08/26 11:50:29;;;;;;;8.02;4.18;;;;;;;;;;5025800;28;20496;-74
2021/08/26 11:53:00;;;;;;;8.70;3.63;;;;;;;;;;5010707;28;20032;-73
2021/08/26 11:55:30;;;;;;;9.43;3.85;;;;;;;;;;5008304;28;20036;-74
2021/08/26 11:57:56;;;;;;;7.45;3.17;;;;;;;;;;5007072;28;20123;-72
2021/08/26 12:00:22;;;;;;;11.45;3.35;;;;;;;;;;5022535;28;20033;-74
2021/08/26 12:02:55;;;;;;;4.80;2.75;;;;;;;;;;5019283;28;20116;-74
2021/08/26 12:05:22;;;;;;;9.02;5.38;;;;;;;;;;5018951;28;20097;-74
2021/08/26 12:07:50;;;;;;;5.10;2.70;;;;;;;;;;5006640;28;20036;-73
2021/08/26 12:10:21;;;;;;;6.85;3.50;;;;;;;;;;5018830;28;20034;-72
2021/08/26 12:12:57;;;;;;;5.60;3.20;;;;;;;;;;5002596;28;20031;-73
2021/08/26 12:15:37;;;;;;;5.13;2.92;;;;;;;;;;5005458;28;20029;-73
2021/08/26 12:18:06;;;;;;;5.40;3.58;;;;;;;;;;4990557;28;20033;-73
2021/08/26 12:20:40;;;;;;;5.50;2.80;;;;;;;;;;5029276;28;20034;-74
2021/08/26 12:23:06;;;;;;;8.43;3.42;;;;;;;;;;5030468;28;20041;-74
2021/08/26 12:25:35;;;;;;;10.10;3.42;;;;;;;;;;5031349;28;20562;-74
2021/08/26 12:28:04;;;;;;;10.65;3.78;;;;;;;;;;5020183;28;20030;-73
2021/08/26 12:30:41;;;;;;;7.45;3.95;;;;;;;;;;5024033;28;20030;-72
2021/08/26 12:33:33;;;;;;;9.05;3.45;;;;;;;;;;5020066;28;20034;-72
2021/08/26 12:36:01;;;;;;;9.52;3.22;;;;;;;;;;5018076;28;20041;-74
2021/08/26 12:38:42;;;;;;;8.43;4.10;;;;;;;;;;5008142;28;20030;-73
2021/08/26 12:41:17;;;;;;;8.82;3.40;;;;;;;;;;5006953;28;20025;-74
2021/08/26 12:43:54;;;;;;;11.00;3.25;;;;;;;;;;5021870;28;20756;-74
2021/08/26 12:46:29;;;;;;;7.90;2.97;;;;;;;;;;5007508;28;20497;-72
2021/08/26 12:49:09;;;;;;;6.22;3.00;;;;;;;;;;5024048;28;20037;-72
2021/08/26 12:51:36;;;;;;;4.53;2.40;;;;;;;;;;5019916;28;20033;-73
2021/08/26 12:54:05;;;;;;;5.32;2.22;;;;;;;;;;5024480;28;20029;-73
2021/08/26 12:56:41;;;;;;;7.63;2.13;;;;;;;;;;5005489;28;20071;-72
2021/08/26 12:59:11;;;;;;;4.60;2.17;;;;;;;;;;5010512;28;20476;-73
2021/08/26 13:01:39;;;;;;;7.07;2.92;;;;;;;;;;5003851;28;20489;-73
2021/08/26 13:04:18;;;;;;;6.35;2.30;;;;;;;;;;5023236;28;20053;-74
2021/08/26 13:06:52;;;;;;;6.50;2.63;;;;;;;;;;5020188;28;20048;-74
2021/08/26 13:09:35;;;;;;;5.68;2.20;;;;;;;;;;5003741;28;20037;-73
2021/08/26 13:12:19;;;;;;;5.78;1.92;;;;;;;;;;5028448;28;20049;-72
2021/08/26 13:14:47;;;;;;;6.05;2.67;;;;;;;;;;5008807;28;20079;-75
2021/08/26 13:17:15;;;;;;;5.88;2.70;;;;;;;;;;5006969;28;20132;-74
2021/08/26 13:19:50;;;;;;;3.42;2.30;;;;;;;;;;5008118;28;20037;-74
2021/08/26 13:22:27;;;;;;;6.40;2.85;;;;;;;;;;5019583;28;20124;-72
2021/08/26 13:24:54;;;;;;;4.32;2.25;;;;;;;;;;5012050;28;20123;-71
2021/08/26 13:27:22;;;;;;;6.75;2.85;;;;;;;;;;5018222;28;20124;-73
2021/08/26 13:29:49;;;;;;;8.52;2.92;;;;;;;;;;5021799;28;20091;-73
2021/08/26 13:32:16;;;;;;;7.45;2.42;;;;;;;;;;5023048;28;20052;-74
2021/08/26 13:34:43;;;;;;;8.07;2.80;;;;;;;;;;5004373;28;20026;-76
2021/08/26 13:37:09;;;;;;;7.82;2.55;;;;;;;;;;5006883;28;20086;-73
2021/08/26 13:39:35;;;;;;;7.80;2.95;;;;;;;;;;5024749;28;20661;-72
2021/08/26 13:42:01;;;;;;;8.85;3.00;;;;;;;;;;5002185;28;20038;-73
2021/08/26 13:44:27;;;;;;;7.88;3.35;;;;;;;;;;5018553;28;20670;-73
2021/08/26 13:46:52;;;;;;;6.63;2.97;;;;;;;;;;5005260;28;20469;-72
2021/08/26 13:49:18;;;;;;;12.82;3.17;;;;;;;;;;5021407;28;20427;-73
2021/08/26 13:51:46;;;;;;;6.30;3.08;;;;;;;;;;5001675;28;20072;-73
2021/08/26 13:54:16;;;;;;;6.95;3.50;;;;;;;;;;5026029;28;20025;-73
2021/08/26 13:56:42;;;;;;;8.95;4.20;;;;;;;;;;5001059;28;20436;-73
2021/08/26 13:59:09;;;;;;;12.40;3.65;;;;;;;;;;5019091;28;20021;-74
2021/08/26 14:01:36;;;;;;;7.00;3.70;;;;;;;;;;5021633;28;20112;-73
2021/08/26 14:04:02;;;;;;;6.82;4.03;;;;;;;;;;5002645;28;20478;-74
2021/08/26 14:06:29;;;;;;;9.77;4.38;;;;;;;;;;5022565;28;20029;-73
2021/08/26 14:08:54;;;;;;;14.32;4.55;;;;;;;;;;5002559;28;20033;-74
2021/08/26 14:11:20;;;;;;;8.52;3.83;;;;;;;;;;5001483;28;20029;-74
2021/08/26 14:13:45;;;;;;;10.43;3.55;;;;;;;;;;5007017;28;20029;-73
2021/08/26 14:16:11;;;;;;;4.97;2.70;;;;;;;;;;5023907;28;20040;-74
2021/08/26 14:18:37;;;;;;;5.13;2.75;;;;;;;;;;4999307;28;20126;-73
2021/08/26 14:21:02;;;;;;;4.95;2.75;;;;;;;;;;5007413;28;20025;-74
2021/08/26 14:23:28;;;;;;;7.43;3.30;;;;;;;;;;5008611;28;20542;-75
2021/08/26 14:25:54;;;;;;;12.55;3.40;;;;;;;;;;5016575;28;20053;-73
2021/08/26 14:28:20;;;;;;;15.57;4.88;;;;;;;;;;5010365;28;20025;-73
2021/08/26 14:30:46;;;;;;;9.57;2.83;;;;;;;;;;5026577;28;20029;-73
2021/08/26 14:33:11;;;;;;;8.48;3.17;;;;;;;;;;5028047;28;20402;-74
2021/08/26 14:35:38;;;;;;;13.32;4.25;;;;;;;;;;5020170;28;20037;-73
2021/08/26 14:38:04;;;;;;;12.23;4.05;;;;;;;;;;5033786;28;20456;-73
2021/08/26 14:40:31;;;;;;;15.02;4.07;;;;;;;;;;5015616;28;20124;-73
2021/08/26 14:42:58;;;;;;;8.38;3.22;;;;;;;;;;5013892;28;20025;-74
2021/08/26 14:45:24;;;;;;;9.80;3.67;;;;;;;;;;5020758;28;20067;-73